createdAt,value
2019-04-23T00:02:30.120Z,10.46
2019-04-23T00:04:59.546Z,10.36
2019-04-23T00:07:41.485Z,10.36
2019-04-23T00:10:12.074Z,10.36
2019-04-23T00:15:17.091Z,10.29
2019-04-23T00:17:52.061Z,10.19
2019-04-23T00:20:23.558Z,10.19
2019-04-23T00:23:06.111Z,10.23
2019-04-23T00:25:51.039Z,10.20
2019-04-23T00:28:20.448Z,10.14
2019-04-23T00:30:58.229Z,10.11
2019-04-23T00:33:25.043Z,10.11
2019-04-23T00:36:15.543Z,9.99
2019-04-23T00:38:34.966Z,9.93
2019-04-23T00:41:02.973Z,9.93
2019-04-23T00:43:37.781Z,9.96
2019-04-23T00:46:06.303Z,9.97
2019-04-23T00:51:03.413Z,9.90
2019-04-23T00:53:38.885Z,9.90
2019-04-23T00:56:32.165Z,9.88
2019-04-23T00:58:51.095Z,9.87
2019-04-23T01:01:26.931Z,9.87
2019-04-23T01:03:53.054Z,9.81
2019-04-23T01:06:23.612Z,9.79
2019-04-23T01:09:00.062Z,9.77
2019-04-23T01:11:23.969Z,9.74
2019-04-23T01:14:01.027Z,9.68
2019-04-23T01:19:20.637Z,9.65
2019-04-23T01:21:32.624Z,9.59
2019-04-23T01:24:25.125Z,9.59
2019-04-23T01:27:51.549Z,9.60
2019-04-23T01:30:26.642Z,9.59
2019-04-23T01:33:15.408Z,9.57
2019-04-23T01:35:30.012Z,9.57
2019-04-23T01:38:02.482Z,9.58
2019-04-23T01:40:36.600Z,9.57
2019-04-23T01:43:10.800Z,9.56
2019-04-23T01:45:35.891Z,9.56
2019-04-23T01:48:13.654Z,9.56
2019-04-23T01:53:28.785Z,9.52
2019-04-23T02:01:01.227Z,9.46
2019-04-23T02:03:34.832Z,9.47
2019-04-23T02:06:06.835Z,9.44
2019-04-23T02:08:40.493Z,9.40
2019-04-23T02:11:25.341Z,9.40
2019-04-23T02:13:49.129Z,9.38
2019-04-23T02:16:19.281Z,9.37
2019-04-23T02:19:03.704Z,9.37
2019-04-23T02:21:22.517Z,9.35
2019-04-23T02:23:58.376Z,9.32
2019-04-23T02:26:33.950Z,9.31
2019-04-23T02:29:14.645Z,9.29
2019-04-23T02:34:47.172Z,9.29
2019-04-23T02:39:32.862Z,9.25
2019-04-23T02:42:04.795Z,9.25
2019-04-23T02:44:34.961Z,9.26
2019-04-23T02:52:16.243Z,9.23
2019-04-23T02:54:51.075Z,9.25
2019-04-23T02:57:18.634Z,9.26
2019-04-23T03:00:07.991Z,9.23
2019-04-23T03:02:45.163Z,9.26
2019-04-23T03:10:02.892Z,9.23
2019-04-23T03:12:37.734Z,9.22
2019-04-23T03:21:24.461Z,9.24
2019-04-23T03:23:52.076Z,9.26
2019-04-23T03:28:57.622Z,9.27
2019-04-23T03:35:08.856Z,9.24
2019-04-23T03:37:04.088Z,9.26
2019-04-23T03:38:54.368Z,9.25
2019-04-23T03:43:51.973Z,9.25
2019-04-23T03:49:09.794Z,9.25
2019-04-23T03:51:42.897Z,9.18
2019-04-23T03:59:26.580Z,9.25
2019-04-23T04:09:34.762Z,9.28
2019-04-23T04:12:00.901Z,9.29
2019-04-23T04:22:23.028Z,9.35
2019-04-23T04:24:41.619Z,9.38
2019-04-23T04:32:11.772Z,9.43
2019-04-23T04:40:12.305Z,9.57
2019-04-23T04:42:15.186Z,9.50
2019-04-23T04:45:14.305Z,9.58
2019-04-23T04:52:43.953Z,9.64
2019-04-23T04:55:02.967Z,9.65
2019-04-23T05:00:13.240Z,9.85
2019-04-23T05:02:53.188Z,9.85
2019-04-23T05:05:35.286Z,9.93
2019-04-23T05:07:39.894Z,9.94
2019-04-23T05:10:29.909Z,9.38
2019-04-23T05:13:11.784Z,10.07
2019-04-23T05:15:17.162Z,10.07
2019-04-23T05:18:23.264Z,10.18
2019-04-23T05:25:39.583Z,10.25
2019-04-23T05:28:12.559Z,10.31
2019-04-23T05:30:52.084Z,10.33
2019-04-23T05:38:35.841Z,10.46
2019-04-23T05:41:03.898Z,10.49
2019-04-23T05:43:29.641Z,10.56
2019-04-23T05:46:04.429Z,10.60
2019-04-23T05:48:35.218Z,10.64
2019-04-23T05:53:43.660Z,10.86
2019-04-23T05:56:07.688Z,10.96
2019-04-23T05:58:43.728Z,11.04
2019-04-23T06:04:12.938Z,11.01
2019-04-23T06:09:12.657Z,11.21
2019-04-23T06:14:11.392Z,11.41
2019-04-23T06:16:41.202Z,11.49
2019-04-23T06:19:22.753Z,11.51
2019-04-23T06:22:12.586Z,11.02
2019-04-23T06:27:01.677Z,11.86
2019-04-23T06:29:35.725Z,11.95
2019-04-23T06:32:04.661Z,11.99
2019-04-23T06:37:09.714Z,12.12
2019-04-23T06:39:42.842Z,11.66
2019-04-23T06:42:11.632Z,12.38
2019-04-23T06:44:52.052Z,12.37
2019-04-23T06:47:20.189Z,12.47
2019-04-23T06:49:56.002Z,12.58
2019-04-23T06:52:21.716Z,12.56
2019-04-23T06:57:27.088Z,12.92
2019-04-23T06:59:59.276Z,12.98
2019-04-23T07:02:33.803Z,12.97
2019-04-23T07:05:11.337Z,12.63
2019-04-23T07:10:11.535Z,13.46
2019-04-23T07:12:52.305Z,13.57
2019-04-23T07:15:30.816Z,13.74
2019-04-23T07:17:48.100Z,13.85
2019-04-23T07:20:21.674Z,13.88
2019-04-23T07:23:00.755Z,13.98
2019-04-23T07:25:48.533Z,14.12
2019-04-23T07:28:06.942Z,14.26
2019-04-23T07:30:35.832Z,14.38
2019-04-23T07:33:12.028Z,13.97
2019-04-23T07:35:45.264Z,14.67
2019-04-23T07:38:56.370Z,14.89
2019-04-23T07:41:43.280Z,14.92
2019-04-23T07:44:28.203Z,15.00
2019-04-23T07:49:59.185Z,15.19
2019-04-23T07:52:20.153Z,14.74
2019-04-23T07:54:58.684Z,15.33
2019-04-23T07:57:41.936Z,15.39
2019-04-23T08:00:02.576Z,15.59
2019-04-23T08:02:37.981Z,15.73
2019-04-23T08:07:42.295Z,15.89
2019-04-23T08:10:14.009Z,16.09
2019-04-23T08:12:45.124Z,16.19
2019-04-23T08:15:23.165Z,16.30
2019-04-23T08:18:04.811Z,16.45
2019-04-23T08:20:47.427Z,16.48
2019-04-23T08:23:12.628Z,16.44
2019-04-23T08:26:26.773Z,16.50
2019-04-23T08:28:59.573Z,16.50
2019-04-23T08:31:35.025Z,15.96
2019-04-23T08:34:08.538Z,16.57
2019-04-23T08:36:37.553Z,16.64
2019-04-23T08:39:05.455Z,16.76
2019-04-23T08:41:46.565Z,16.89
2019-04-23T08:44:25.440Z,16.89
2019-04-23T08:47:06.869Z,16.94
2019-04-23T08:49:36.137Z,17.05
2019-04-23T08:52:10.503Z,17.14
2019-04-23T08:57:08.713Z,17.39
2019-04-23T08:59:45.197Z,17.52
2019-04-23T09:04:54.168Z,17.55
2019-04-23T09:10:09.712Z,17.70
2019-04-23T09:12:55.263Z,17.65
2019-04-23T09:15:18.751Z,17.77
2019-04-23T09:17:49.869Z,17.78
2019-04-23T09:20:23.460Z,17.91
2019-04-23T09:22:50.340Z,17.92
2019-04-23T09:25:37.648Z,17.94
2019-04-23T09:28:09.572Z,17.97
2019-04-23T09:30:42.805Z,18.15
2019-04-23T09:36:27.487Z,18.33
2019-04-23T09:42:04.034Z,18.50
2019-04-23T09:44:58.099Z,18.76
2019-04-23T09:47:50.422Z,18.31
2019-04-23T09:53:01.368Z,19.11
2019-04-23T09:55:32.422Z,19.30
2019-04-23T09:58:03.257Z,19.41
2019-04-23T10:02:59.597Z,19.44
2019-04-23T10:05:31.044Z,19.53
2019-04-23T10:08:01.653Z,19.01
2019-04-23T10:10:23.257Z,19.62
2019-04-23T10:12:53.988Z,19.64
2019-04-23T10:15:30.446Z,19.68
2019-04-23T10:17:58.298Z,19.71
2019-04-23T10:20:29.031Z,19.90
2019-04-23T10:23:00.203Z,20.00
2019-04-23T10:25:31.948Z,20.07
2019-04-23T10:28:15.192Z,19.95
2019-04-23T10:30:47.147Z,19.99
2019-04-23T10:33:21.281Z,19.97
2019-04-23T10:36:00.345Z,20.15
2019-04-23T10:38:30.709Z,20.26
2019-04-23T10:41:04.498Z,20.41
2019-04-23T10:43:38.772Z,20.53
2019-04-23T10:46:47.123Z,20.68
2019-04-23T10:50:00.273Z,20.77
2019-04-23T10:54:45.703Z,21.02
2019-04-23T10:57:21.173Z,21.13
2019-04-23T10:59:55.167Z,21.12
2019-04-23T11:02:39.046Z,21.12
2019-04-23T11:07:51.388Z,21.30
2019-04-23T11:13:10.595Z,21.38
2019-04-23T11:15:47.254Z,21.51
2019-04-23T11:18:07.230Z,21.57
2019-04-23T11:20:41.561Z,21.44
2019-04-23T11:23:07.668Z,21.48
2019-04-23T11:25:55.695Z,21.36
2019-04-23T11:28:20.966Z,21.57
2019-04-23T11:30:54.852Z,21.66
2019-04-23T11:33:30.446Z,21.63
2019-04-23T11:38:48.870Z,21.78
2019-04-23T11:41:09.647Z,21.78
2019-04-23T11:43:44.330Z,21.92
2019-04-23T11:56:35.547Z,22.18
2019-04-23T11:58:52.490Z,22.05
2019-04-23T12:01:52.555Z,22.04
2019-04-23T12:04:49.900Z,22.00
2019-04-23T12:07:39.845Z,21.98
2019-04-23T12:10:29.971Z,22.12
2019-04-23T12:12:55.557Z,22.31
2019-04-23T12:18:05.298Z,22.47
2019-04-23T12:20:37.921Z,22.55
2019-04-23T12:23:28.131Z,22.22
2019-04-23T12:25:49.882Z,22.95
2019-04-23T12:28:20.649Z,23.15
2019-04-23T12:30:50.330Z,23.34
2019-04-23T12:36:34.014Z,23.57
2019-04-23T12:38:55.238Z,23.74
2019-04-23T12:41:29.872Z,23.57
2019-04-23T12:44:02.742Z,23.40
2019-04-23T12:46:38.393Z,23.48
2019-04-23T12:49:28.366Z,23.65
2019-04-23T12:54:21.552Z,23.63
2019-04-23T12:56:57.385Z,23.66
2019-04-23T12:59:36.694Z,23.80
2019-04-23T13:02:15.988Z,23.50
2019-04-23T13:04:48.731Z,23.88
2019-04-23T13:07:29.288Z,23.77
2019-04-23T13:10:01.526Z,23.94
2019-04-23T13:15:22.970Z,23.81
2019-04-23T13:18:04.642Z,24.00
2019-04-23T13:20:38.565Z,24.31
2019-04-23T13:26:32.059Z,24.82
2019-04-23T13:29:01.199Z,24.92
2019-04-23T13:31:39.757Z,24.88
2019-04-23T13:34:32.077Z,24.98
2019-04-23T13:37:06.696Z,24.88
2019-04-23T13:39:39.745Z,24.52
2019-04-23T13:42:26.211Z,24.91
2019-04-23T13:47:46.830Z,24.91
2019-04-23T13:55:14.480Z,24.77
2019-04-23T13:58:21.620Z,24.93
2019-04-23T14:00:58.073Z,24.53
2019-04-23T14:06:29.756Z,24.79
2019-04-23T14:11:27.601Z,25.01
2019-04-23T14:14:05.022Z,25.04
2019-04-23T14:16:44.648Z,25.20
2019-04-23T14:19:26.084Z,25.02
2019-04-23T14:21:45.901Z,25.13
2019-04-23T14:24:47.822Z,25.11
2019-04-23T14:27:10.981Z,25.11
2019-04-23T14:29:50.447Z,25.16
2019-04-23T14:32:22.538Z,25.14
2019-04-23T14:35:10.819Z,24.93
2019-04-23T14:37:45.749Z,24.91
2019-04-23T14:40:29.648Z,24.94
2019-04-23T14:53:48.208Z,25.46
2019-04-23T14:56:29.909Z,25.38
2019-04-23T15:04:14.777Z,25.75
2019-04-23T15:09:53.223Z,25.84
2019-04-23T15:12:11.968Z,25.66
2019-04-23T15:14:47.845Z,25.79
2019-04-23T15:17:13.025Z,26.00
2019-04-23T15:19:55.296Z,25.79
2019-04-23T15:25:15.329Z,26.10
2019-04-23T15:29:58.266Z,25.59
2019-04-23T15:32:53.590Z,25.29
2019-04-23T15:35:24.953Z,25.04
2019-04-23T15:40:23.313Z,24.33
2019-04-23T15:43:02.737Z,24.16
2019-04-23T15:45:28.558Z,24.15
2019-04-23T15:48:03.312Z,23.84
2019-04-23T15:50:40.099Z,23.72
2019-04-23T15:53:17.633Z,23.76
2019-04-23T15:55:49.175Z,23.74
2019-04-23T15:58:15.785Z,23.73
2019-04-23T16:01:21.183Z,23.89
2019-04-23T16:03:24.449Z,24.02
2019-04-23T16:05:59.799Z,24.00
2019-04-23T16:11:40.941Z,24.05
2019-04-23T16:16:51.506Z,23.99
2019-04-23T16:19:57.868Z,23.90
2019-04-23T16:22:19.053Z,23.72
2019-04-23T16:25:03.609Z,23.69
2019-04-23T16:27:34.841Z,23.53
2019-04-23T16:30:14.185Z,23.35
2019-04-23T16:36:01.499Z,22.36
2019-04-23T16:38:38.328Z,22.65
2019-04-23T16:40:57.314Z,22.60
2019-04-23T16:49:10.194Z,22.52
2019-04-23T16:54:16.964Z,22.50
2019-04-23T16:57:01.073Z,22.01
2019-04-23T16:59:18.439Z,22.15
2019-04-23T17:02:13.503Z,22.46
2019-04-23T17:04:38.627Z,22.47
2019-04-23T17:07:19.729Z,22.39
2019-04-23T17:10:08.225Z,22.29
2019-04-23T17:12:46.319Z,22.23
2019-04-23T17:15:22.496Z,21.88
2019-04-23T17:17:49.493Z,21.73
2019-04-23T17:20:28.873Z,21.58
2019-04-23T17:22:57.943Z,20.96
2019-04-23T17:25:37.637Z,21.41
2019-04-23T17:28:17.071Z,21.24
2019-04-23T17:30:41.832Z,21.15
2019-04-23T17:33:18.928Z,21.11
2019-04-23T17:38:49.561Z,21.07
2019-04-23T17:41:41.799Z,20.95
2019-04-23T17:44:18.188Z,20.83
2019-04-23T17:46:50.690Z,20.77
2019-04-23T17:49:15.382Z,20.74
2019-04-23T17:51:57.542Z,20.69
2019-04-23T17:57:07.508Z,20.52
2019-04-23T18:00:17.957Z,20.50
2019-04-23T18:02:49.645Z,20.40
2019-04-23T18:12:53.361Z,19.88
2019-04-23T18:15:09.596Z,19.81
2019-04-23T18:17:50.551Z,19.72
2019-04-23T18:20:37.743Z,19.07
2019-04-23T18:25:52.450Z,19.51
2019-04-23T18:28:21.982Z,19.40
2019-04-23T18:31:13.136Z,19.33
2019-04-23T18:36:08.084Z,19.06
2019-04-23T18:38:50.155Z,18.96
2019-04-23T18:41:37.869Z,18.92
2019-04-23T18:43:48.307Z,18.86
2019-04-23T18:51:21.469Z,18.66
2019-04-23T18:54:15.208Z,18.66
2019-04-23T18:56:56.131Z,18.07
2019-04-23T18:59:38.943Z,18.59
2019-04-23T19:02:07.295Z,18.54
2019-04-23T19:07:38.497Z,18.44
2019-04-23T19:10:30.617Z,18.25
2019-04-23T19:18:23.857Z,18.25
2019-04-23T19:21:08.051Z,18.17
2019-04-23T19:23:46.934Z,17.58
2019-04-23T19:26:41.672Z,18.15
2019-04-23T19:31:51.141Z,18.12
2019-04-23T19:39:26.171Z,18.08
2019-04-23T19:41:59.486Z,18.06
2019-04-23T19:47:33.308Z,18.05
2019-04-23T19:49:40.637Z,18.05
2019-04-23T19:52:48.226Z,17.92
2019-04-23T19:54:58.586Z,17.92
2019-04-23T19:57:59.994Z,17.84
2019-04-23T20:00:09.678Z,17.79
2019-04-23T20:03:13.737Z,17.73
2019-04-23T20:05:34.101Z,17.71
2019-04-23T20:08:13.201Z,17.65
2019-04-23T20:10:47.658Z,17.68
2019-04-23T20:13:23.964Z,17.69
2019-04-23T20:18:35.393Z,17.68
2019-04-23T20:26:13.656Z,17.63
2019-04-23T20:36:53.360Z,17.74
2019-04-23T20:39:32.977Z,17.77
2019-04-23T20:42:08.508Z,17.79
2019-04-23T20:44:53.488Z,17.75
2019-04-23T20:47:09.886Z,17.72
2019-04-23T20:49:44.239Z,17.68
2019-04-23T20:52:32.030Z,17.62
2019-04-23T20:57:43.790Z,17.57
2019-04-23T21:00:08.701Z,17.54
2019-04-23T21:03:18.484Z,17.55
2019-04-23T21:05:21.278Z,17.48
2019-04-23T21:10:37.202Z,17.51
2019-04-23T21:15:38.974Z,17.06
2019-04-23T21:18:15.625Z,17.38
2019-04-23T21:20:43.379Z,17.37
2019-04-23T21:25:47.721Z,17.17
2019-04-23T21:36:35.507Z,16.65
2019-04-23T21:39:38.649Z,17.20
2019-04-23T21:42:39.045Z,17.13
2019-04-23T21:45:09.077Z,17.09
2019-04-23T21:47:39.271Z,17.08
2019-04-23T21:50:11.842Z,16.99
2019-04-23T21:52:39.740Z,17.04
2019-04-23T21:55:14.835Z,17.02
2019-04-23T21:57:53.406Z,17.03
2019-04-23T22:00:07.599Z,17.00
2019-04-23T22:02:57.446Z,17.04
2019-04-23T22:08:02.562Z,16.99
2019-04-23T22:10:49.345Z,16.95
2019-04-23T22:13:22.730Z,16.85
2019-04-23T22:15:54.761Z,16.91
2019-04-23T22:18:18.264Z,16.93
2019-04-23T22:20:52.666Z,16.91
2019-04-23T22:23:21.525Z,16.95
2019-04-23T22:25:59.822Z,16.95
2019-04-23T22:28:30.173Z,16.97
2019-04-23T22:33:39.338Z,16.85
2019-04-23T22:36:09.403Z,16.83
2019-04-23T22:38:33.651Z,16.85
2019-04-23T22:41:08.619Z,16.81
2019-04-23T22:43:53.079Z,16.75
2019-04-23T22:49:20.006Z,16.77
2019-04-23T22:57:03.246Z,16.72
2019-04-23T22:59:26.597Z,16.72
2019-04-23T23:02:21.561Z,16.72
2019-04-23T23:04:41.038Z,16.69
2019-04-23T23:07:08.793Z,16.64
2019-04-23T23:09:49.129Z,16.61
2019-04-23T23:12:14.523Z,16.53
2019-04-23T23:14:54.765Z,16.51
2019-04-23T23:17:24.296Z,16.45
2019-04-23T23:20:11.079Z,16.40
2019-04-23T23:23:03.713Z,16.38
2019-04-23T23:27:57.723Z,16.23
2019-04-23T23:30:33.868Z,16.21
2019-04-23T23:35:28.374Z,16.17
2019-04-23T23:38:08.317Z,16.14
2019-04-23T23:40:36.199Z,16.16
2019-04-23T23:43:22.613Z,16.15
2019-04-23T23:48:12.787Z,16.10
2019-04-23T23:50:57.186Z,16.10
2019-04-23T23:56:05.544Z,16.06
2019-04-23T23:58:28.906Z,16.07
